Details From BGGH - Nuuk
To CYYR - Goose Bay
Flight Number -
Tags decoded
Created
Modified
Stats Distance 706 nm / 1,308 km
Max Altitude 0 ft / 0 m
Waypoints 2
Social Downloads 1
Likes 0
Share VATSIM

Download

Looking for another format? Having issues loading an existing format? Contact us
Advertisement - Login to hide

Notes

Requested: BGGH CYYR

Route

BGGH CYYR

ID Type Via Altitude Latitude Longitude Leg Dist Tot Dist Heading (true) Name
O BGGH APT - 0 ft / 0 m 64.19302˚ -51.67645˚ - 0 nm - Nuuk
O CYYR APT - 0 ft / 0 m 53.31882˚ -60.42389˚ 706 nm 706 nm 206° / 199° Goose Bay

Altitude Profile

Advertisement - Login to hide

Weather


0- 5 10 15 20 25 30 35+ Temperature / ° C

Clouds and Precipitation
Forecast for 2018-05-21 06:00 UTC. Updated 31 minutes ago

Ground ~20,000 ft ~40,000 ft Winds

BGGH

Details ICAO BGGH (GOH)
Name Nuuk
Region Greenland
Timezone America/Godthab (UTC-2.0)
Stats Elevation 283 ft / 86 m (AMSL)
Location 64.193021° -51.676454°
Runways 1
Magnetic Variation 26.864° W

METAR

BGGH 210250Z 03002KT 9999 FEW015 M02/M05 Q0999

Decode

TAF

Not found

Departure Runways

ID Width Length Bearing (true) Bearing (mag) Surface Threshold Offset Overrun Length
05 98 ft / 30 m 3,113 ft / 949 m 18.44° 45.30° Asphalt 0 ft / 0 m 0 ft / 0 m
23 98 ft / 30 m 3,113 ft / 949 m 198.44° 225.30° Asphalt 0 ft / 0 m 0 ft / 0 m

CYYR

Details ICAO CYYR (YYR)
Name Goose Bay
Region Canada
Timezone America/Goose_Bay (UTC-3.0)
Stats Elevation 160 ft / 49 m (AMSL)
Location 53.318820° -60.423890°
Runways 2
Magnetic Variation 20.870° W

METAR

CYYR 210300Z 01005KT 15SM BKN023 BKN027 BKN072 00/M03 A2961 RMK SC6SC1AC1 SLP031

Decode

TAF

TAF CYYR 202330Z 2100/2124 32015G30KT P6SM SCT012 BKN030 TEMPO 2100/2103 5SM -SHSN OVC012 BECMG 2100/2102 30015KT FM210300 30010KT P6SM BKN030 TEMPO 2103/2106 5SM -SHSN OVC020 FM210600 VRB03KT P6SM BKN030 TEMPO 2106/2112 BKN020 FM211500 09006KT 5SM -SHRASN BR OVC020 FM212200 06008KT 3SM -SN OVC010 RMK NXT FCST BY 210600Z

Decode

Destination Runways

ID Width Length Bearing (true) Bearing (mag) Surface Threshold Offset Overrun Length
08 209 ft / 64 m 11,055 ft / 3,369 m 54.70° 75.57° Asphalt 0 ft / 0 m 1,000 ft / 305 m
16 200 ft / 61 m 9,515 ft / 2,900 m 132.96° 153.83° Asphalt 0 ft / 0 m 0 ft / 0 m
26 209 ft / 64 m 11,055 ft / 3,369 m 234.73° 255.60° Asphalt 0 ft / 0 m 1,000 ft / 305 m
34 200 ft / 61 m 9,515 ft / 2,900 m 312.99° 333.86° Asphalt 0 ft / 0 m 500 ft / 152 m

Popular Alternatives